Time;durP1;ratioP1;P1;durP2;ratioP2;P2;SDS_P1;SDS_P2;PMS_P1;PMS_P2;Temp;Humidity;BMP_temperature;BMP_pressure;BME280_temperature;BME280_humidity;BME280_pressure;Samples;Min_cycle;Max_cycle;Signal;HPM_P1;HPM_P2
2021/01/16 00:01:53;;;;;;;22.05;8.70;;;;;;;9.40;43.13;153581.39;1818231;77;21399;-60
2021/01/16 00:04:26;;;;;;;20.57;8.30;;;;;;;9.44;43.03;153591.88;1789871;77;21902;-61
2021/01/16 00:10:27;;;;;;;18.25;7.60;;;;;;;9.45;42.64;153595.78;1813684;77;21336;-60
2021/01/16 00:13:00;;;;;;;20.17;8.35;;;;;;;9.63;42.52;153641.62;1822725;77;21308;-60
2021/01/16 00:15:33;;;;;;;28.23;9.73;;;;;;;9.60;42.18;153633.80;1819271;77;21346;-60
2021/01/16 00:18:08;;;;;;;19.87;8.30;;;;;;;9.60;42.01;153633.80;1816669;77;21364;-61
2021/01/16 00:20:43;;;;;;;21.75;8.83;;;;;;;9.53;42.21;153615.44;1817963;79;21418;-60
2021/01/16 00:23:16;;;;;;;19.55;9.03;;;;;;;9.55;42.21;153621.97;1836321;77;21153;-61
2021/01/16 00:25:49;;;;;;;21.82;8.95;;;;;;;9.54;42.79;153619.39;1853695;77;21347;-59
2021/01/16 00:28:28;;;;;;;21.15;9.10;;;;;;;9.58;41.92;153628.55;1819883;77;21788;-60
2021/01/16 00:31:02;;;;;;;26.33;10.95;;;;;;;9.75;41.51;153674.39;1834953;77;21886;-58
2021/01/16 00:33:36;;;;;;;32.33;11.75;;;;;;;9.58;42.27;153629.84;1847227;77;21333;-58
2021/01/16 00:36:10;;;;;;;25.40;9.78;;;;;;;9.59;41.60;153631.19;1847737;77;21292;-61
2021/01/16 00:38:43;;;;;;;20.88;9.20;;;;;;;9.70;41.64;153661.27;1847368;77;21194;-61
2021/01/16 00:41:16;;;;;;;23.45;8.95;;;;;;;9.84;41.48;153699.25;1847513;77;21532;-61
2021/01/16 00:43:49;;;;;;;33.08;11.28;;;;;;;9.73;41.70;153667.80;1847646;77;21354;-61
2021/01/16 00:46:23;;;;;;;26.40;10.58;;;;;;;9.77;41.42;153679.64;1847716;77;21355;-60
2021/01/16 00:48:57;;;;;;;31.05;12.58;;;;;;;9.67;41.26;153652.12;1832581;78;21202;-60
2021/01/16 00:51:29;;;;;;;21.52;9.88;;;;;;;9.56;41.54;153623.31;1834148;78;21340;-60
2021/01/16 00:54:03;;;;;;;19.35;9.55;;;;;;;9.51;41.53;153610.19;1833733;77;21284;-60
2021/01/16 00:56:36;;;;;;;21.75;8.23;;;;;;;9.45;41.32;153594.50;1833899;78;21245;-62
2021/01/16 00:59:11;;;;;;;18.25;7.17;;;;;;;9.34;42.26;153566.98;1814486;79;21345;-61
2021/01/16 01:01:51;;;;;;;15.40;6.75;;;;;;;9.23;41.98;153538.19;1828240;77;21295;-61
2021/01/16 01:04:25;;;;;;;13.68;6.92;;;;;;;9.00;45.25;153477.97;1852790;77;21177;-62
2021/01/16 01:07:00;;;;;;;16.15;7.75;;;;;;;8.93;47.65;153457.05;1848733;77;21308;-62
2021/01/16 01:09:32;;;;;;;15.35;6.45;;;;;;;8.86;44.95;153438.70;1830699;78;21213;-61
2021/01/16 01:12:07;;;;;;;13.70;6.08;;;;;;;8.85;43.76;153436.13;1845201;78;21210;-62
2021/01/16 01:14:40;;;;;;;14.73;5.97;;;;;;;8.55;49.02;153357.59;1845046;78;21190;-61
2021/01/16 01:17:18;;;;;;;16.40;6.20;;;;;;;8.64;46.97;153382.47;1837391;78;21190;-62
2021/01/16 01:19:51;;;;;;;12.70;5.95;;;;;;;8.63;44.17;153379.84;1807944;79;21273;-60
2021/01/16 01:22:30;;;;;;;13.68;6.35;;;;;;;8.48;43.91;153339.30;1839921;77;21356;-61
2021/01/16 01:25:00;;;;;;;14.45;5.92;;;;;;;8.30;45.53;153293.52;1847694;77;21316;-60
2021/01/16 01:27:32;;;;;;;12.23;5.25;;;;;;;8.12;47.56;153246.36;1836119;77;21352;-61
2021/01/16 01:30:07;;;;;;;11.63;5.17;;;;;;;7.83;50.98;153167.92;1807765;79;21217;-60
2021/01/16 01:32:41;;;;;;;12.85;5.87;;;;;;;7.78;52.11;153154.83;1807990;79;21332;-60
2021/01/16 01:35:15;;;;;;;17.17;7.10;;;;;;;7.82;52.07;153165.31;1783582;79;21260;-60
2021/01/16 01:37:54;;;;;;;14.43;6.58;;;;;;;7.72;52.27;153139.17;1825320;77;21343;-59
2021/01/16 01:40:28;;;;;;;15.35;6.87;;;;;;;7.76;47.58;153149.59;1853927;77;21158;-59
2021/01/16 01:43:00;;;;;;;14.95;5.95;;;;;;;7.79;45.29;153158.78;1854146;77;21525;-60
2021/01/16 01:45:33;;;;;;;17.37;5.92;;;;;;;7.71;45.77;153137.83;1854149;77;21316;-60
2021/01/16 01:48:07;;;;;;;13.62;5.85;;;;;;;7.16;59.90;152992.81;1836015;77;21327;-62
2021/01/16 01:50:40;;;;;;;14.70;5.50;;;;;;;7.10;63.12;122123.48;1825905;77;21304;-61
2021/01/16 01:53:13;;;;;;;13.40;6.00;;;;;;;7.12;63.03;123829.98;1815274;77;21146;-61
2021/01/16 01:55:47;;;;;;;15.35;5.80;;;;;;;7.27;55.45;153021.55;1811759;77;21308;-61
2021/01/16 01:58:23;;;;;;;13.95;6.37;;;;;;;7.27;52.13;153021.55;1851311;77;21754;-58
2021/01/16 02:00:56;;;;;;;13.68;5.80;;;;;;;7.31;50.30;153033.30;1811839;79;21351;-59
2021/01/16 02:03:29;;;;;;;14.15;5.83;;;;;;;7.45;47.62;153068.56;1811689;79;21426;-59
2021/01/16 02:06:02;;;;;;;14.13;6.40;;;;;;;7.47;45.93;153073.81;1844268;77;21343;-60
2021/01/16 02:08:36;;;;;;;17.82;6.45;;;;;;;7.57;44.79;153101.28;1826845;77;21819;-61
2021/01/16 02:11:12;;;;;;;16.17;7.10;;;;;;;7.57;44.39;153101.28;1820919;77;21332;-61
2021/01/16 02:13:44;;;;;;;20.02;7.35;;;;;;;7.65;44.17;153122.17;1820567;79;21371;-61
2021/01/16 02:16:40;;;;;;;15.95;6.42;;;;;;;7.72;43.82;153139.17;1845361;77;21730;-60
2021/01/16 02:19:14;;;;;;;23.22;6.33;;;;;;;7.73;45.04;153141.78;1830761;77;21685;-60
2021/01/16 02:21:47;;;;;;;19.07;7.33;;;;;;;7.88;44.00;153182.30;1848804;77;21559;-61
2021/01/16 02:24:21;;;;;;;20.65;7.47;;;;;;;7.97;43.78;153204.55;1848045;77;21371;-61
2021/01/16 02:27:38;;;;;;;15.63;6.42;;;;;;;8.27;43.75;153284.38;1814958;79;21316;-60
2021/01/16 02:30:11;;;;;;;14.73;6.05;;;;;;;8.44;43.50;153328.81;1814727;79;21316;-60
2021/01/16 02:32:44;;;;;;;15.18;6.12;;;;;;;8.31;43.63;153294.80;1814638;79;22419;-60
2021/01/16 02:35:19;;;;;;;13.32;5.37;;;;;;;8.50;43.34;153345.83;1819081;77;21391;-59
2021/01/16 02:38:18;;;;;;;12.85;5.92;;;;;;;8.56;42.89;153360.22;1823710;77;21362;-59
2021/01/16 02:40:55;;;;;;;15.93;6.60;;;;;;;8.48;42.62;153339.30;1817804;77;21922;-61
2021/01/16 02:43:38;;;;;;;15.58;5.78;;;;;;;8.26;42.83;153283.03;1820573;77;21189;-61
2021/01/16 02:46:38;;;;;;;12.40;5.92;;;;;;;8.23;42.50;153275.17;1826570;77;22711;-61
2021/01/16 02:49:36;;;;;;;15.85;5.45;;;;;;;7.99;42.13;153211.06;1835411;77;21811;-60
2021/01/16 02:52:13;;;;;;;10.50;4.60;;;;;;;7.96;42.40;153203.20;1815441;77;21331;-60
2021/01/16 02:54:47;;;;;;;11.85;4.25;;;;;;;7.79;44.51;153158.78;1824117;77;21308;-61
2021/01/16 02:57:20;;;;;;;11.40;5.00;;;;;;;7.52;43.56;153086.89;1827166;77;21264;-60
2021/01/16 02:59:52;;;;;;;14.28;4.85;;;;;;;7.40;42.83;153056.81;1823477;77;21178;-60
2021/01/16 03:02:25;;;;;;;12.40;5.37;;;;;;;7.27;43.52;153021.55;1785000;79;21197;-60
2021/01/16 03:04:59;;;;;;;12.55;5.58;;;;;;;7.18;43.36;152999.33;1771439;80;21278;-60
2021/01/16 03:07:32;;;;;;;12.30;4.83;;;;;;;7.27;43.29;153022.83;1801883;79;21201;-61
2021/01/16 03:10:12;;;;;;;11.10;5.40;;;;;;;7.14;42.87;152987.56;1766490;80;21375;-61
2021/01/16 03:12:44;;;;;;;12.85;5.03;;;;;;;7.09;42.95;152974.48;1771922;80;21213;-62
2021/01/16 03:15:18;;;;;;;15.80;5.25;;;;;;;6.91;42.71;152926.14;1768104;80;21353;-61
2021/01/16 03:17:56;;;;;;;11.83;5.28;;;;;;;6.83;42.75;152906.55;1765196;80;22321;-60
2021/01/16 03:20:31;;;;;;;12.18;4.97;;;;;;;6.82;41.67;152903.98;1762784;80;21353;-61
2021/01/16 03:23:04;;;;;;;12.95;5.95;;;;;;;6.56;42.36;152834.72;1764246;80;21321;-60
2021/01/16 03:25:37;;;;;;;16.80;5.28;;;;;;;6.59;41.99;152842.58;1758077;80;21313;-68
2021/01/16 03:28:10;;;;;;;11.65;4.87;;;;;;;6.54;42.30;152830.83;1758143;80;21355;-61
2021/01/16 03:30:43;;;;;;;12.23;4.87;;;;;;;6.47;42.27;152811.23;1758329;80;21226;-61
2021/01/16 03:33:16;;;;;;;10.90;4.87;;;;;;;6.56;42.21;152834.72;1763141;80;21301;-61
2021/01/16 03:35:49;;;;;;;12.13;5.45;;;;;;;6.41;42.07;152795.59;1773468;80;21709;-59
2021/01/16 03:38:22;;;;;;;14.45;5.67;;;;;;;6.41;41.42;152796.88;1773380;80;21368;-60
2021/01/16 03:40:55;;;;;;;12.93;4.80;;;;;;;6.29;41.41;152765.55;1759439;80;21368;-60
2021/01/16 03:43:28;;;;;;;10.63;5.12;;;;;;;6.08;40.59;152708.11;1761550;80;21253;-61
2021/01/16 03:46:01;;;;;;;16.40;5.70;;;;;;;5.98;39.89;152682.02;1792723;79;21190;-60
2021/01/16 03:48:35;;;;;;;11.10;4.72;;;;;;;5.89;40.43;152658.55;1791797;79;21352;-62
2021/01/16 03:51:09;;;;;;;8.28;4.50;;;;;;;5.23;39.64;152484.98;1790713;79;21352;-60
2021/01/16 03:53:43;;;;;;;9.85;3.90;;;;;;;4.73;39.37;152354.59;1774377;79;21817;-62
2021/01/16 03:56:16;;;;;;;8.10;4.22;;;;;;;4.07;44.73;152182.61;1803595;79;21288;-63
2021/01/16 03:58:51;;;;;;;13.88;4.28;;;;;;;4.73;41.38;152354.59;1760386;80;21342;-60
2021/01/16 04:01:24;;;;;;;11.65;3.85;;;;;;;4.56;39.80;152310.31;1751178;80;21324;-61
2021/01/16 04:03:57;;;;;;;12.07;4.50;;;;;;;3.93;40.74;152146.13;1776776;79;21388;-62
2021/01/16 04:06:30;;;;;;;13.50;5.10;;;;;;;4.43;40.16;152276.42;1784662;79;21375;-61
2021/01/16 04:09:04;;;;;;;12.50;5.00;;;;;;;4.37;39.73;152260.75;1783603;79;21796;-62
2021/01/16 04:11:37;;;;;;;8.15;3.90;;;;;;;4.47;39.01;152286.81;1799169;79;21876;-61
2021/01/16 04:14:10;;;;;;;10.40;4.50;;;;;;;4.18;39.66;152209.94;1771837;79;21230;-59
2021/01/16 04:16:43;;;;;;;10.38;5.83;;;;;;;4.65;38.77;152335.03;1768154;79;22399;-61
2021/01/16 04:19:16;;;;;;;9.55;4.30;;;;;;;4.76;38.40;152362.44;1774328;80;21363;-60
2021/01/16 04:21:49;;;;;;;13.30;5.37;;;;;;;4.84;38.70;152383.27;1782998;79;21294;-60
2021/01/16 04:24:21;;;;;;;13.93;5.90;;;;;;;4.83;38.45;152381.98;1751511;82;21282;-60
2021/01/16 04:26:54;;;;;;;12.78;6.25;;;;;;;4.80;39.44;152374.16;1775684;80;21258;-61
2021/01/16 04:29:27;;;;;;;16.82;5.75;;;;;;;4.99;38.74;152423.67;1811161;79;21224;-60
2021/01/16 04:31:59;;;;;;;13.45;5.45;;;;;;;4.78;38.58;152367.66;1765531;80;21154;-60
2021/01/16 04:34:33;;;;;;;13.00;5.30;;;;;;;4.94;38.98;152410.67;1746771;82;21380;-60
2021/01/16 04:37:05;;;;;;;11.40;4.83;;;;;;;4.91;39.08;152401.55;1798434;79;21332;-61
2021/01/16 04:39:40;;;;;;;14.68;5.92;;;;;;;4.63;38.50;152328.53;1819907;79;21371;-61
2021/01/16 04:42:15;;;;;;;11.20;4.78;;;;;;;4.19;37.81;152213.88;1807997;79;21240;-61
2021/01/16 04:44:49;;;;;;;10.45;5.00;;;;;;;4.05;37.28;152176.11;1804461;78;21327;-61
2021/01/16 04:47:24;;;;;;;10.10;5.97;;;;;;;3.66;37.17;152075.80;1802784;78;21178;-60
2021/01/16 04:49:58;;;;;;;14.68;5.28;;;;;;;3.43;37.40;152013.31;1759818;80;21241;-62
2021/01/16 04:52:32;;;;;;;13.62;4.85;;;;;;;3.60;38.33;152058.88;1736031;80;21382;-62
2021/01/16 04:55:08;;;;;;;14.50;5.22;;;;;;;3.63;37.33;152068.02;1791122;78;21328;-74
2021/01/16 04:57:41;;;;;;;11.38;4.72;;;;;;;3.63;37.35;152068.02;1792703;78;21992;-64
2021/01/16 05:00:15;;;;;;;15.00;4.65;;;;;;;3.67;37.31;152078.41;1759886;80;21293;-63
2021/01/16 05:02:48;;;;;;;15.48;5.50;;;;;;;3.78;37.54;152105.77;1790267;78;21214;-60
2021/01/16 05:05:21;;;;;;;14.73;5.75;;;;;;;3.70;37.11;152084.95;1757147;80;21256;-67
2021/01/16 05:07:54;;;;;;;10.72;5.60;;;;;;;3.42;36.77;152012.03;1788227;79;21194;-66
2021/01/16 05:10:29;;;;;;;17.23;6.10;;;;;;;3.30;36.73;151979.50;1755253;80;21201;-64
2021/01/16 05:13:17;;;;;;;13.98;5.33;;;;;;;3.22;36.68;151959.97;1807225;78;21308;-61
2021/01/16 05:15:50;;;;;;;14.90;5.30;;;;;;;3.41;36.77;152009.41;1757352;80;21370;-59
2021/01/16 05:18:22;;;;;;;9.10;4.55;;;;;;;3.34;36.68;151991.22;1768777;80;21209;-60
2021/01/16 05:20:55;;;;;;;21.62;5.72;;;;;;;3.44;36.65;152017.25;1756309;80;21685;-59
2021/01/16 05:23:28;;;;;;;13.43;6.53;;;;;;;3.39;36.69;152002.92;1811969;79;21379;-59
2021/01/16 05:26:01;;;;;;;9.58;5.25;;;;;;;3.31;36.80;151983.39;1785710;80;21190;-59
2021/01/16 05:28:33;;;;;;;11.53;5.03;;;;;;;3.08;36.40;151922.19;1817500;79;21343;-59
2021/01/16 05:31:08;;;;;;;17.70;6.12;;;;;;;2.80;37.25;151850.64;1787632;80;21194;-60
2021/01/16 05:33:41;;;;;;;16.67;5.50;;;;;;;2.86;36.34;151866.28;1754764;81;21720;-60
2021/01/16 05:36:14;;;;;;;14.93;6.55;;;;;;;2.83;37.19;151858.47;1787244;80;21217;-59
2021/01/16 05:38:48;;;;;;;12.53;5.42;;;;;;;2.62;37.19;151802.50;1788351;79;21339;-59
2021/01/16 05:41:21;;;;;;;11.22;4.90;;;;;;;2.71;38.07;151825.95;1746769;81;21202;-59
2021/01/16 05:43:53;;;;;;;15.68;5.30;;;;;;;2.74;38.16;151833.72;1747009;82;21234;-60
2021/01/16 05:46:26;;;;;;;16.30;5.37;;;;;;;2.71;39.15;151825.95;1747161;79;21341;-59
2021/01/16 05:49:00;;;;;;;16.02;6.10;;;;;;;2.62;43.63;151802.50;1763243;80;21194;-59
2021/01/16 05:51:33;;;;;;;20.00;6.87;;;;;;;2.54;42.94;151780.44;1754010;82;21225;-59
2021/01/16 05:54:06;;;;;;;12.93;5.58;;;;;;;2.35;40.81;151732.31;1721241;82;21328;-59
2021/01/16 05:56:40;;;;;;;19.80;6.28;;;;;;;2.49;38.42;151767.41;1721015;82;21324;-59
2021/01/16 05:59:18;;;;;;;7.95;4.25;;;;;;;2.17;37.52;151684.19;1754429;80;21391;-59
2021/01/16 06:01:52;;;;;;;15.25;5.50;;;;;;;1.92;37.21;151620.47;1753893;82;21860;-59
2021/01/16 06:04:25;;;;;;;9.63;5.12;;;;;;;2.19;37.20;151690.69;1782270;80;21348;-60
2021/01/16 06:07:06;;;;;;;15.88;5.90;;;;;;;2.29;37.21;151715.41;1785530;80;21395;-59
2021/01/16 06:09:40;;;;;;;16.15;5.33;;;;;;;2.37;37.42;151736.19;1737004;82;21321;-60
2021/01/16 06:12:15;;;;;;;14.18;6.30;;;;;;;2.37;37.11;151736.19;1754623;82;21258;-59
2021/01/16 06:14:48;;;;;;;13.13;5.28;;;;;;;2.29;37.19;151716.69;1722809;82;21348;-60
2021/01/16 06:17:20;;;;;;;16.75;5.70;;;;;;;2.44;37.20;151755.70;1758390;80;21199;-60
2021/01/16 06:19:53;;;;;;;10.75;3.62;;;;;;;2.47;37.01;151763.53;1786193;80;21230;-61
2021/01/16 06:22:28;;;;;;;13.20;4.80;;;;;;;1.79;36.21;151586.67;1754809;80;21155;-60
2021/01/16 06:25:00;;;;;;;7.67;3.67;;;;;;;2.07;36.54;151659.48;1747737;81;21352;-60
2021/01/16 06:27:33;;;;;;;6.35;3.17;;;;;;;1.81;37.58;151591.88;1731955;82;21344;-60
2021/01/16 06:30:07;;;;;;;10.43;4.72;;;;;;;1.67;36.54;151552.92;1723540;80;21320;-60
2021/01/16 06:32:53;;;;;;;10.23;4.65;;;;;;;2.04;36.50;151651.66;1779095;80;21208;-60
2021/01/16 06:35:29;;;;;;;14.25;5.47;;;;;;;2.05;35.72;151653.00;1748498;82;21331;-61
2021/01/16 06:38:02;;;;;;;18.55;4.85;;;;;;;2.19;36.08;151690.69;1794858;79;21375;-60
2021/01/16 06:40:41;;;;;;;14.83;4.50;;;;;;;2.15;35.95;151678.98;1777477;80;21241;-61
2021/01/16 06:43:18;;;;;;;13.70;4.75;;;;;;;2.04;35.78;151651.66;1751824;81;21210;-60
2021/01/16 06:45:51;;;;;;;11.48;4.55;;;;;;;1.95;36.04;151628.28;1741801;81;21395;-60
2021/01/16 06:48:24;;;;;;;15.68;4.45;;;;;;;1.72;36.30;151567.22;1794938;79;21277;-61
2021/01/16 06:50:56;;;;;;;12.55;3.50;;;;;;;1.99;36.01;151638.70;1751795;82;21256;-60
2021/01/16 06:53:29;;;;;;;8.95;3.83;;;;;;;1.70;36.38;151562.02;1779352;80;21189;-60
2021/01/16 06:56:09;;;;;;;11.22;5.78;;;;;;;1.74;36.02;151571.09;1722360;80;21437;-61
2021/01/16 06:58:44;;;;;;;11.68;4.90;;;;;;;1.39;35.96;151481.42;1753423;81;21341;-60
2021/01/16 07:01:16;;;;;;;7.67;3.80;;;;;;;1.73;35.90;151569.81;1773648;81;21381;-60
2021/01/16 07:03:49;;;;;;;11.03;3.85;;;;;;;1.43;35.71;151491.83;1769111;80;21304;-60
2021/01/16 07:06:22;;;;;;;10.65;4.33;;;;;;;1.61;35.53;151537.31;1776377;81;21729;-60
2021/01/16 07:08:55;;;;;;;11.75;5.25;;;;;;;1.45;35.53;151497.03;1766292;81;21233;-60
2021/01/16 07:11:27;;;;;;;11.85;3.98;;;;;;;2.07;35.61;151658.20;1762184;81;21335;-60
2021/01/16 07:14:00;;;;;;;11.75;4.62;;;;;;;1.75;35.65;151574.98;1730407;81;21391;-60
2021/01/16 07:16:35;;;;;;;10.65;5.17;;;;;;;1.49;35.53;151507.45;1732168;81;21346;-60
2021/01/16 07:19:08;;;;;;;8.80;3.27;;;;;;;1.72;35.25;151565.89;1739788;80;21344;-60
2021/01/16 07:21:43;;;;;;;13.03;6.40;;;;;;;1.80;35.13;151589.28;1774388;80;21323;-60
2021/01/16 07:24:20;;;;;;;10.03;4.03;;;;;;;1.85;34.98;151601.02;1774995;79;21376;-60
2021/01/16 07:26:53;;;;;;;16.70;5.53;;;;;;;1.88;35.24;151608.78;1779476;80;21210;-60
2021/01/16 07:29:25;;;;;;;14.30;5.00;;;;;;;2.31;34.84;151720.61;1739818;81;21229;-61
2021/01/16 07:31:58;;;;;;;13.60;4.85;;;;;;;2.34;34.71;151728.37;1779255;80;21198;-60
2021/01/16 07:34:31;;;;;;;13.53;5.17;;;;;;;2.23;34.84;151699.78;1797757;79;21158;-61
2021/01/16 07:37:04;;;;;;;12.23;5.25;;;;;;;2.29;34.92;151715.41;1764499;79;21208;-60
2021/01/16 07:39:40;;;;;;;15.05;4.87;;;;;;;2.30;34.80;151719.28;1779259;79;21221;-61
2021/01/16 07:42:16;;;;;;;9.85;4.78;;;;;;;2.33;34.37;151725.78;1792197;79;21685;-61
2021/01/16 07:44:49;;;;;;;10.08;4.00;;;;;;;2.52;34.77;151775.22;1768567;80;21212;-61
2021/01/16 07:47:23;;;;;;;5.83;3.35;;;;;;;2.18;34.05;151686.81;1792906;79;21697;-61
2021/01/16 07:49:58;;;;;;;13.75;4.45;;;;;;;2.40;34.18;151745.28;1785659;79;21587;-61
2021/01/16 07:52:30;;;;;;;11.00;4.55;;;;;;;2.60;34.07;151797.34;1785318;79;21205;-61
2021/01/16 07:55:08;;;;;;;9.48;4.05;;;;;;;2.88;34.05;151871.50;1797659;78;21174;-61
2021/01/16 07:57:41;;;;;;;13.43;3.83;;;;;;;3.44;33.66;152015.91;1758028;80;21179;-61
2021/01/16 08:00:14;;;;;;;12.75;4.75;;;;;;;3.55;33.03;152047.16;1743663;81;21328;-60
2021/01/16 08:03:16;;;;;;;12.18;5.05;;;;;;;3.98;33.38;152157.84;1761827;80;21309;-59
2021/01/16 08:06:39;;;;;;;14.30;5.00;;;;;;;4.14;33.83;152200.83;1801965;79;21415;-68
2021/01/16 08:09:54;;;;;;;9.00;4.20;;;;;;;4.46;32.60;152284.20;1789228;79;21213;-60
2021/01/16 08:12:29;;;;;;;11.22;4.05;;;;;;;4.81;32.82;152376.77;1789788;79;21877;-68
2021/01/16 08:15:05;;;;;;;9.75;4.45;;;;;;;4.65;32.54;152333.75;1796285;79;21391;-60
2021/01/16 08:17:42;;;;;;;14.90;5.78;;;;;;;5.14;32.52;152461.53;1797967;79;21367;-62
2021/01/16 08:20:27;;;;;;;13.10;5.97;;;;;;;5.73;33.49;152618.00;1754928;80;21408;-62
2021/01/16 08:22:58;;;;;;;14.18;4.33;;;;;;;5.96;32.86;152676.80;1787773;79;21672;-62
2021/01/16 08:25:33;;;;;;;14.95;5.47;;;;;;;5.94;31.54;152672.91;1766169;78;21327;-61
2021/01/16 08:28:06;;;;;;;19.82;5.97;;;;;;;6.62;34.63;152850.42;1756799;80;21392;-62
2021/01/16 08:30:39;;;;;;;11.43;5.10;;;;;;;6.98;34.03;152944.47;1790564;78;21212;-62
2021/01/16 08:33:13;;;;;;;16.52;5.10;;;;;;;6.95;32.73;152937.89;1726419;80;21384;-62
2021/01/16 08:35:53;;;;;;;19.60;6.45;;;;;;;6.74;30.98;152881.77;1786710;78;21212;-62
2021/01/16 08:38:23;;;;;;;16.60;5.97;;;;;;;6.66;31.55;152860.84;1755732;80;21368;-63
2021/01/16 08:41:04;;;;;;;19.98;6.37;;;;;;;7.05;32.36;152962.73;1779260;78;21227;-61
2021/01/16 08:43:44;;;;;;;11.65;5.15;;;;;;;6.15;31.48;152727.70;1742859;81;21425;-62
2021/01/16 08:46:26;;;;;;;8.73;4.17;;;;;;;6.45;31.67;152807.34;1740270;81;21390;-61
2021/01/16 08:49:20;;;;;;;19.45;7.25;;;;;;;6.78;31.57;152892.19;1752637;81;21316;-61
2021/01/16 08:51:53;;;;;;;14.15;5.28;;;;;;;7.01;31.55;152952.27;1744950;81;21185;-60
2021/01/16 08:54:26;;;;;;;14.83;6.22;;;;;;;6.88;31.47;152918.34;1745136;81;21317;-61
2021/01/16 08:57:17;;;;;;;11.70;5.10;;;;;;;7.29;32.60;153026.78;1744516;81;21339;-60
2021/01/16 08:59:49;;;;;;;11.08;5.37;;;;;;;7.53;31.54;153090.80;1746021;79;21383;-61
2021/01/16 09:02:22;;;;;;;17.10;6.65;;;;;;;7.96;32.42;153203.20;1742864;79;21409;-62
2021/01/16 09:04:55;;;;;;;15.50;5.70;;;;;;;7.72;31.54;153139.17;1741424;81;21395;-61
2021/01/16 09:07:28;;;;;;;25.77;5.45;;;;;;;7.41;32.83;153058.09;1746467;81;21268;-60
2021/01/16 09:10:08;;;;;;;15.23;5.28;;;;;;;7.07;31.34;152967.97;1745010;81;21395;-62
2021/01/16 09:12:41;;;;;;;16.65;7.28;;;;;;;7.04;31.75;152960.12;1746403;79;21398;-62
2021/01/16 09:15:26;;;;;;;17.65;6.03;;;;;;;6.18;31.30;152735.55;1744523;79;21244;-62
2021/01/16 09:18:15;;;;;;;20.00;5.67;;;;;;;5.66;31.64;152598.47;1744865;79;21402;-62
2021/01/16 09:20:58;;;;;;;20.32;7.15;;;;;;;5.89;31.30;152658.55;1745557;79;21827;-61
2021/01/16 09:23:38;;;;;;;14.93;6.00;;;;;;;6.07;31.23;152706.83;1744533;79;21174;-61
2021/01/16 09:26:16;;;;;;;14.05;6.58;;;;;;;6.53;31.24;152828.22;1744856;81;21379;-61
2021/01/16 09:28:54;;;;;;;12.90;4.60;;;;;;;7.08;31.75;152970.59;1745003;79;21806;-61
2021/01/16 09:44:18;;;;;;;15.85;6.97;;;;;;;7.89;31.70;153184.92;1874050;76;27979;-60
2021/01/16 09:46:51;;;;;;;13.90;5.40;;;;;;;7.33;30.20;153038.53;1848716;77;21544;-61
2021/01/16 09:49:24;;;;;;;14.87;5.47;;;;;;;7.63;30.92;153115.66;1779816;80;21225;-61
2021/01/16 09:52:02;;;;;;;12.30;5.58;;;;;;;7.84;30.74;153170.55;1724038;80;21238;-60
2021/01/16 09:54:36;;;;;;;15.05;6.28;;;;;;;8.23;30.88;153273.89;1811677;79;21344;-60
2021/01/16 09:57:10;;;;;;;16.95;5.85;;;;;;;7.88;29.77;153182.30;1779773;80;21328;-60
2021/01/16 09:59:42;;;;;;;15.83;5.20;;;;;;;7.67;29.69;153126.08;1779968;80;21351;-63
2021/01/16 10:02:17;;;;;;;12.60;4.90;;;;;;;7.78;31.10;153156.16;1779957;80;21320;-62
2021/01/16 10:04:50;;;;;;;15.60;6.78;;;;;;;8.00;29.65;153212.34;1779799;80;21364;-62
2021/01/16 10:07:23;;;;;;;10.25;5.20;;;;;;;7.88;29.18;153180.97;1779780;80;21842;-62
2021/01/16 10:09:56;;;;;;;15.18;5.37;;;;;;;8.12;30.34;153245.06;1779957;80;21190;-63
2021/01/16 10:12:39;;;;;;;11.83;5.25;;;;;;;8.43;30.15;153327.53;1779584;80;21340;-61
2021/01/16 10:15:18;;;;;;;12.60;5.83;;;;;;;8.24;29.34;153276.50;1779744;80;21675;-62
2021/01/16 10:17:56;;;;;;;11.20;4.83;;;;;;;7.99;29.54;153209.73;1779587;80;21395;-61
2021/01/16 10:20:36;;;;;;;13.75;4.55;;;;;;;7.90;29.42;153186.20;1779483;80;21234;-62
2021/01/16 10:23:08;;;;;;;12.80;4.55;;;;;;;8.50;31.20;153345.83;1773869;80;21367;-63
2021/01/16 10:25:43;;;;;;;13.70;5.15;;;;;;;7.78;29.82;153154.83;1779694;80;21391;-62
2021/01/16 10:28:36;;;;;;;11.12;4.55;;;;;;;8.05;30.06;153228.06;1770762;80;21311;-60
2021/01/16 10:31:10;;;;;;;9.85;4.45;;;;;;;7.97;31.16;153204.55;1748799;82;21193;-62
2021/01/16 10:33:45;;;;;;;10.70;4.62;;;;;;;8.16;30.50;153255.55;1745228;81;21250;-63
2021/01/16 10:36:19;;;;;;;10.63;5.58;;;;;;;7.92;30.17;153192.78;1740675;82;21341;-61
2021/01/16 10:38:58;;;;;;;13.18;4.62;;;;;;;8.12;31.32;153245.06;1739706;82;21230;-62
2021/01/16 10:41:39;;;;;;;11.97;4.40;;;;;;;7.54;30.17;153093.42;1715775;82;21395;-63
2021/01/16 10:44:13;;;;;;;;;;;;;;;7.86;30.96;153175.78;1755554;80;21241;-62
2021/01/16 10:46:47;;;;;;;12.78;5.47;;;;;;;8.21;31.45;153268.66;1747350;82;20262;-63
2021/01/16 10:49:34;;;;;;;11.57;6.35;;;;;;;8.03;29.57;153220.20;1747130;82;21361;-71
2021/01/16 10:52:03;;;;;;;15.43;5.60;;;;;;;8.21;30.18;153268.66;1747278;80;21276;-68
2021/01/16 10:54:38;;;;;;;10.55;5.28;;;;;;;7.68;30.77;153128.69;1747707;80;21844;-64
2021/01/16 10:57:12;;;;;;;15.78;5.10;;;;;;;8.02;30.65;153217.59;1788922;79;21224;-62
2021/01/16 10:59:56;;;;;;;13.22;6.33;;;;;;;7.76;31.00;153149.59;1790755;79;22313;-61
2021/01/16 11:02:36;;;;;;;8.93;4.33;;;;;;;7.60;31.51;153109.08;1777450;79;21234;-69
2021/01/16 11:05:26;;;;;;;9.73;4.03;;;;;;;6.92;29.51;152930.09;1789744;79;21843;-67
2021/01/16 11:08:05;;;;;;;10.48;4.10;;;;;;;7.18;30.20;152998.00;1777317;79;21843;-62
2021/01/16 11:10:38;;;;;;;13.53;5.15;;;;;;;6.81;30.19;152901.36;1776624;79;21336;-65
2021/01/16 11:13:24;;;;;;;12.98;5.47;;;;;;;7.25;31.35;153017.59;1778174;79;21181;-64
2021/01/16 11:16:24;;;;;;;11.12;5.15;;;;;;;7.19;31.67;153000.61;1777156;79;21336;-69
2021/01/16 11:18:53;;;;;;;8.63;4.42;;;;;;;7.06;31.11;152966.63;1777809;79;21724;-68
2021/01/16 11:21:52;;;;;;;11.33;5.28;;;;;;;7.43;31.31;153064.67;1777401;79;22298;-61
2021/01/16 11:24:46;;;;;;;12.53;5.15;;;;;;;7.71;31.67;153137.83;1781726;79;21150;-63
2021/01/16 11:27:20;;;;;;;8.90;4.37;;;;;;;7.08;30.83;152970.59;1775280;80;21209;-65
2021/01/16 11:29:55;;;;;;;15.20;5.50;;;;;;;7.69;31.63;153132.64;1777389;80;21225;-61
2021/01/16 11:32:28;;;;;;;13.60;5.25;;;;;;;7.44;30.46;153067.28;1743018;80;21371;-60
2021/01/16 11:35:10;;;;;;;14.70;5.35;;;;;;;7.55;31.32;153096.03;1777444;80;21213;-63
2021/01/16 11:37:51;;;;;;;15.13;5.55;;;;;;;8.01;32.09;153214.97;1775482;80;21254;-65
2021/01/16 11:40:37;;;;;;;11.88;4.97;;;;;;;7.52;30.93;153086.89;1777329;80;21280;-67
2021/01/16 11:43:13;;;;;;;14.53;5.90;;;;;;;7.28;31.86;153024.17;1776512;80;21209;-68
2021/01/16 11:45:46;;;;;;;13.70;5.33;;;;;;;6.52;31.42;152825.59;1782699;80;21379;-68
2021/01/16 11:48:19;;;;;;;11.88;5.30;;;;;;;6.34;32.77;152778.62;1784936;80;21387;-64
2021/01/16 11:50:54;;;;;;;13.38;5.33;;;;;;;6.33;32.55;152776.00;1767877;80;21252;-66
2021/01/16 11:53:28;;;;;;;12.80;5.28;;;;;;;5.98;31.50;152682.02;1785561;79;21270;-63
2021/01/16 11:56:06;;;;;;;14.40;6.50;;;;;;;6.26;31.68;152757.70;1783102;79;21343;-64
2021/01/16 11:58:40;;;;;;;11.12;5.75;;;;;;;6.51;31.77;152822.98;1787290;79;21367;-70
2021/01/16 12:01:16;;;;;;;16.67;5.60;;;;;;;6.60;31.54;152845.19;1785104;79;21399;-70
2021/01/16 12:03:51;;;;;;;17.92;7.08;;;;;;;6.42;31.75;152799.50;1783535;79;21324;-68
2021/01/16 12:06:25;;;;;;;15.45;5.65;;;;;;;5.90;31.97;152661.16;1783466;79;21233;-72
2021/01/16 12:08:59;;;;;;;13.45;5.47;;;;;;;5.64;32.30;152593.25;1755724;79;21336;-68
2021/01/16 12:11:33;;;;;;;12.73;5.08;;;;;;;5.36;32.39;152520.17;1784850;79;21336;-69
2021/01/16 12:14:08;;;;;;;19.42;5.50;;;;;;;5.00;32.83;152426.28;1784864;79;21256;-72
2021/01/16 12:16:42;;;;;;;14.23;5.92;;;;;;;4.86;33.67;152388.50;1784261;79;21882;-72
2021/01/16 12:19:16;;;;;;;15.90;6.67;;;;;;;4.92;33.52;152404.16;1784659;79;21846;-74
2021/01/16 12:21:50;;;;;;;11.25;5.65;;;;;;;4.87;33.39;152391.09;1776066;79;21867;-64
2021/01/16 12:24:23;;;;;;;17.35;6.75;;;;;;;4.67;32.97;152338.97;1777086;79;21372;-64